Time;durP1;ratioP1;P1;durP2;ratioP2;P2;SDS_P1;SDS_P2;PMS_P1;PMS_P2;Temp;Humidity;BMP_temperature;BMP_pressure;BME280_temperature;BME280_humidity;BME280_pressure;Samples;Min_cycle;Max_cycle;Signal;HPM_P1;HPM_P2
2022/05/10 00:01:39;;;;;;;11.45;4.80;;;12.40;99.90;;;;;;6216678;23;20048;-83
2022/05/10 00:04:07;;;;;;;10.95;4.82;;;12.40;99.90;;;;;;6217167;23;20515;-84
2022/05/10 00:06:38;;;;;;;11.55;5.10;;;12.40;99.90;;;;;;6216584;23;20023;-83
2022/05/10 00:09:05;;;;;;;11.90;4.80;;;12.40;99.90;;;;;;6216514;23;20539;-83
2022/05/10 00:11:31;;;;;;;16.75;5.05;;;12.30;99.90;;;;;;6217543;23;20012;-83
2022/05/10 00:13:56;;;;;;;13.20;4.97;;;12.30;99.90;;;;;;6216396;23;20514;-83
2022/05/10 00:16:22;;;;;;;12.20;5.30;;;12.30;99.90;;;;;;6216345;23;20013;-84
2022/05/10 00:18:48;;;;;;;11.43;5.03;;;12.30;99.90;;;;;;6215941;23;20020;-83
2022/05/10 00:21:19;;;;;;;13.18;5.20;;;12.30;99.90;;;;;;6216510;23;20059;-83
2022/05/10 00:23:45;;;;;;;13.57;5.18;;;12.20;99.90;;;;;;6215558;23;20055;-83
2022/05/10 00:26:11;;;;;;;11.68;4.88;;;12.20;99.90;;;;;;6214898;23;20016;-83
2022/05/10 00:28:36;;;;;;;14.10;5.72;;;12.20;99.90;;;;;;6214754;23;20544;-83
2022/05/10 00:31:02;;;;;;;9.85;4.88;;;12.20;99.90;;;;;;6215224;23;20019;-83
2022/05/10 00:33:30;;;;;;;11.93;5.40;;;12.20;99.90;;;;;;6215075;23;20027;-83
2022/05/10 00:35:57;;;;;;;15.65;5.97;;;12.10;99.90;;;;;;6214754;23;20008;-83
2022/05/10 00:38:31;;;;;;;11.40;5.72;;;12.20;99.90;;;;;;6215746;23;20020;-83
2022/05/10 00:41:11;;;;;;;14.80;6.35;;;12.20;99.90;;;;;;6217227;23;20012;-83
2022/05/10 00:43:42;;;;;;;12.10;6.63;;;12.20;99.90;;;;;;6216245;23;20031;-83
2022/05/10 00:46:10;;;;;;;15.30;7.28;;;12.30;99.90;;;;;;6214087;23;20009;-84
2022/05/10 00:48:58;;;;;;;17.00;7.32;;;12.40;99.90;;;;;;6215369;23;20052;-83
2022/05/10 00:51:40;;;;;;;14.35;7.13;;;12.40;99.90;;;;;;6217079;23;20016;-83
2022/05/10 00:54:32;;;;;;;15.27;7.95;;;12.50;99.90;;;;;;6214683;23;20047;-83
2022/05/10 00:57:28;;;;;;;16.40;8.48;;;12.50;99.90;;;;;;6216733;23;20012;-83
2022/05/10 01:00:12;;;;;;;16.25;7.95;;;12.60;99.90;;;;;;6215493;23;20052;-83
2022/05/10 01:03:01;;;;;;;17.67;8.85;;;12.60;99.90;;;;;;6214975;23;20059;-84
2022/05/10 01:05:57;;;;;;;18.27;9.55;;;12.70;99.90;;;;;;6216112;23;20013;-84
2022/05/10 01:09:01;;;;;;;19.63;9.82;;;12.80;99.90;;;;;;6216284;23;20017;-84
2022/05/10 01:11:30;;;;;;;17.53;9.73;;;12.90;99.90;;;;;;6216148;23;20017;-83
2022/05/10 01:14:20;;;;;;;19.67;10.70;;;13.10;99.90;;;;;;6213297;23;20317;-83
2022/05/10 01:16:46;;;;;;;22.02;10.75;;;13.10;99.90;;;;;;6216713;23;20040;-83
2022/05/10 01:19:13;;;;;;;21.92;10.95;;;13.10;99.90;;;;;;6216240;23;20008;-83
2022/05/10 01:22:08;;;;;;;18.23;10.63;;;13.10;99.90;;;;;;6212877;23;20330;-84
2022/05/10 01:25:14;;;;;;;20.67;11.93;;;13.10;99.90;;;;;;6214251;23;20024;-83
2022/05/10 01:28:10;;;;;;;19.55;11.55;;;13.20;99.90;;;;;;6214488;23;20017;-83
2022/05/10 01:30:37;;;;;;;19.73;12.23;;;13.30;99.90;;;;;;6215994;23;20020;-83
2022/05/10 01:35:55;;;;;;;25.17;11.73;;;13.70;99.90;;;;;;6212714;23;20443;-83
2022/05/10 01:38:24;;;;;;;21.95;12.52;;;13.30;99.90;;;;;;6214019;23;20353;-83
2022/05/10 01:40:53;;;;;;;21.15;11.38;;;13.30;99.90;;;;;;6212690;23;20095;-83
2022/05/10 01:43:27;;;;;;;20.85;12.30;;;13.30;99.90;;;;;;6214009;23;20096;-83
2022/05/10 01:45:59;;;;;;;20.65;12.18;;;13.20;99.90;;;;;;6214932;23;20386;-83
2022/05/10 01:48:26;;;;;;;20.02;12.73;;;13.20;99.90;;;;;;6213553;23;20052;-83
2022/05/10 01:50:54;;;;;;;23.67;12.23;;;13.10;99.90;;;;;;6215227;23;20025;-83
2022/05/10 01:53:33;;;;;;;20.80;12.48;;;13.10;99.90;;;;;;6213614;23;20040;-83
2022/05/10 01:56:20;;;;;;;19.48;12.10;;;13.00;99.90;;;;;;6212622;23;20095;-83
2022/05/10 01:58:47;;;;;;;20.20;12.10;;;12.90;99.90;;;;;;6213280;23;20016;-83
2022/05/10 02:01:33;;;;;;;18.88;11.23;;;12.90;99.90;;;;;;6213856;23;20459;-83
2022/05/10 02:04:08;;;;;;;22.42;12.40;;;12.80;99.90;;;;;;6214318;23;20047;-83
2022/05/10 02:06:59;;;;;;;19.55;12.18;;;12.80;99.90;;;;;;6213099;23;20032;-83
2022/05/10 02:09:43;;;;;;;18.48;11.77;;;12.70;99.90;;;;;;6214722;23;20021;-83
2022/05/10 02:12:19;;;;;;;19.70;12.77;;;12.70;99.90;;;;;;6215423;23;20017;-83
2022/05/10 02:14:50;;;;;;;21.15;12.45;;;12.60;99.90;;;;;;6215272;23;20021;-83
2022/05/10 02:17:33;;;;;;;20.10;12.60;;;12.60;99.90;;;;;;6212854;23;20016;-83
2022/05/10 02:20:03;;;;;;;22.70;12.70;;;12.50;99.90;;;;;;6213901;23;20397;-83
2022/05/10 02:22:43;;;;;;;19.75;11.88;;;12.50;99.90;;;;;;6215547;23;20012;-83
2022/05/10 02:25:17;;;;;;;25.20;13.57;;;12.50;99.90;;;;;;6213411;23;20022;-83
2022/05/10 02:27:51;;;;;;;19.75;12.18;;;12.40;99.90;;;;;;6214980;23;20013;-83
2022/05/10 02:30:22;;;;;;;;;;;12.40;99.90;;;;;;6213308;23;20024;-84
2022/05/10 02:33:07;;;;;;;22.15;12.48;;;12.40;99.90;;;;;;6214910;23;20335;-83
2022/05/10 02:35:43;;;;;;;19.35;13.02;;;12.40;99.90;;;;;;6213646;23;20016;-83
2022/05/10 02:38:11;;;;;;;21.77;13.27;;;12.40;99.90;;;;;;6212363;23;20016;-83
2022/05/10 02:40:41;;;;;;;23.13;13.30;;;12.30;99.90;;;;;;6213467;23;20445;-83
2022/05/10 02:43:11;;;;;;;22.77;13.60;;;12.40;99.90;;;;;;6213361;23;20063;-83
2022/05/10 02:45:38;;;;;;;22.73;13.25;;;12.40;99.90;;;;;;6216360;23;20075;-83
2022/05/10 02:48:05;;;;;;;23.38;13.60;;;12.30;99.90;;;;;;6213725;23;20083;-83
2022/05/10 02:50:33;;;;;;;20.75;12.73;;;12.30;99.90;;;;;;6215443;23;20009;-83
2022/05/10 02:53:00;;;;;;;23.25;14.05;;;12.30;99.90;;;;;;6213852;23;20035;-83
2022/05/10 02:55:56;;;;;;;24.65;14.18;;;12.30;99.90;;;;;;6214535;23;20385;-84
2022/05/10 02:58:49;;;;;;;20.75;13.38;;;12.30;99.90;;;;;;6212734;23;20051;-83
2022/05/10 03:01:19;;;;;;;22.95;14.82;;;12.30;99.90;;;;;;6215731;23;20052;-83
2022/05/10 03:03:45;;;;;;;20.73;13.93;;;12.30;99.90;;;;;;6214701;23;20314;-83
2022/05/10 03:06:17;;;;;;;20.83;14.00;;;12.30;99.90;;;;;;6213902;23;20421;-83
2022/05/10 03:08:44;;;;;;;22.83;14.13;;;12.30;99.90;;;;;;6215160;23;20012;-83
2022/05/10 03:11:09;;;;;;;21.45;13.82;;;12.30;99.90;;;;;;6213677;23;20023;-83
2022/05/10 03:13:35;;;;;;;21.45;13.98;;;12.20;99.90;;;;;;6212542;23;20013;-83
2022/05/10 03:16:01;;;;;;;21.90;14.60;;;12.20;99.90;;;;;;6214581;23;20067;-83
2022/05/10 03:18:27;;;;;;;27.63;14.95;;;12.20;99.90;;;;;;6215269;23;20091;-84
2022/05/10 03:20:53;;;;;;;23.55;14.77;;;12.30;99.90;;;;;;6212421;23;20047;-84
2022/05/10 03:23:18;;;;;;;23.42;14.75;;;12.30;99.90;;;;;;6215175;23;20013;-83
2022/05/10 03:25:45;;;;;;;24.05;15.02;;;12.20;99.90;;;;;;6215139;23;20092;-83
2022/05/10 03:28:10;;;;;;;21.55;14.25;;;12.30;99.90;;;;;;6213717;23;20020;-83
2022/05/10 03:30:36;;;;;;;23.58;14.68;;;12.30;99.90;;;;;;6214799;23;20020;-83
2022/05/10 03:33:02;;;;;;;21.88;15.20;;;12.30;99.90;;;;;;6212999;23;20071;-83
2022/05/10 03:35:28;;;;;;;22.20;15.35;;;12.30;99.90;;;;;;6211954;23;20012;-83
2022/05/10 03:37:54;;;;;;;23.17;14.90;;;12.30;99.90;;;;;;6214583;23;20388;-83
2022/05/10 03:40:19;;;;;;;24.65;15.27;;;12.30;99.90;;;;;;6214600;23;20019;-83
2022/05/10 03:42:51;;;;;;;26.17;15.63;;;12.30;99.90;;;;;;6213797;23;20020;-83
2022/05/10 03:45:18;;;;;;;25.98;15.27;;;12.30;99.90;;;;;;6214770;23;20063;-84
2022/05/10 03:47:45;;;;;;;25.23;15.80;;;12.30;99.90;;;;;;6213981;23;20021;-83
2022/05/10 03:50:12;;;;;;;24.13;16.17;;;12.40;99.90;;;;;;6215195;23;20325;-83
2022/05/10 03:52:40;;;;;;;23.75;16.00;;;12.30;99.90;;;;;;6216449;23;20051;-83
2022/05/10 03:55:09;;;;;;;23.42;15.35;;;12.50;99.90;;;;;;6215721;23;20016;-83
2022/05/10 03:57:35;;;;;;;24.70;15.48;;;12.40;99.90;;;;;;6215341;23;20353;-83
2022/05/10 04:00:03;;;;;;;32.30;17.35;;;12.40;99.90;;;;;;6214818;23;20099;-83
2022/05/10 04:02:29;;;;;;;26.35;16.40;;;12.40;99.90;;;;;;6215294;23;20044;-83
2022/05/10 04:04:55;;;;;;;24.08;16.13;;;12.40;99.90;;;;;;6214367;23;20318;-83
2022/05/10 04:07:20;;;;;;;25.33;15.25;;;12.40;99.90;;;;;;6214591;23;20020;-83
2022/05/10 04:09:46;;;;;;;25.13;16.17;;;12.40;99.90;;;;;;6213650;23;20340;-83
2022/05/10 04:12:12;;;;;;;27.50;17.23;;;12.40;99.90;;;;;;6216823;23;20404;-83
2022/05/10 04:14:37;;;;;;;23.92;16.35;;;12.40;99.90;;;;;;6216760;23;20004;-83
2022/05/10 04:17:03;;;;;;;26.05;17.00;;;12.40;99.90;;;;;;6215430;23;20024;-83
2022/05/10 04:19:29;;;;;;;28.80;16.48;;;12.50;99.90;;;;;;6216811;23;20020;-84
2022/05/10 04:21:54;;;;;;;25.25;16.60;;;12.50;99.90;;;;;;6216327;23;20020;-83
2022/05/10 04:24:20;;;;;;;26.30;17.13;;;12.60;99.90;;;;;;6213924;23;20099;-83
2022/05/10 04:26:48;;;;;;;23.98;17.23;;;12.60;99.90;;;;;;6216450;23;20020;-83
2022/05/10 04:29:13;;;;;;;27.42;16.20;;;12.60;99.90;;;;;;6216605;23;20095;-84
2022/05/10 04:31:39;;;;;;;28.27;17.20;;;12.60;99.90;;;;;;6213987;23;20057;-84
2022/05/10 04:34:04;;;;;;;26.67;16.95;;;12.70;99.90;;;;;;6216681;23;20028;-83
2022/05/10 04:36:30;;;;;;;25.30;17.15;;;12.80;99.90;;;;;;6214543;23;20021;-83
2022/05/10 04:38:56;;;;;;;26.77;17.77;;;12.80;99.90;;;;;;6217979;23;20017;-84
2022/05/10 04:41:27;;;;;;;24.50;16.88;;;12.80;99.90;;;;;;6216561;23;20019;-83
2022/05/10 04:44:01;;;;;;;25.70;17.17;;;12.90;99.90;;;;;;6214681;23;20476;-83
2022/05/10 04:46:28;;;;;;;;;;;13.00;99.90;;;;;;6215356;23;20015;-83
2022/05/10 04:48:53;;;;;;;30.75;17.15;;;13.00;99.90;;;;;;6214935;23;19959;-84
2022/05/10 04:51:19;;;;;;;25.30;16.85;;;13.00;99.90;;;;;;6213891;23;20487;-83
2022/05/10 04:53:45;;;;;;;23.92;16.95;;;13.10;99.90;;;;;;6215523;23;20341;-83
2022/05/10 04:56:10;;;;;;;28.52;17.73;;;13.20;99.90;;;;;;6216431;23;20020;-84
2022/05/10 04:58:36;;;;;;;29.27;17.70;;;13.20;99.90;;;;;;6215651;23;20024;-83
2022/05/10 05:01:08;;;;;;;31.25;17.65;;;13.30;99.90;;;;;;6216201;23;20325;-84
2022/05/10 05:03:34;;;;;;;31.60;18.08;;;13.40;99.90;;;;;;6216165;23;20047;-84
2022/05/10 05:06:01;;;;;;;29.45;18.13;;;13.40;99.90;;;;;;6213066;23;20009;-83
2022/05/10 05:08:26;;;;;;;32.63;19.02;;;13.50;99.90;;;;;;6215660;23;20474;-83
2022/05/10 05:10:54;;;;;;;27.20;17.88;;;13.60;99.90;;;;;;6215857;23;20048;-83
2022/05/10 05:13:19;;;;;;;26.38;17.75;;;13.70;99.90;;;;;;6215360;23;20100;-84
2022/05/10 05:15:45;;;;;;;24.38;16.80;;;13.80;99.90;;;;;;6215747;23;20452;-84
2022/05/10 05:18:10;;;;;;;29.17;17.65;;;13.90;99.90;;;;;;6217105;23;20083;-84
2022/05/10 05:20:39;;;;;;;26.15;16.95;;;14.00;99.90;;;;;;6215814;23;20103;-83
2022/05/10 05:23:08;;;;;;;30.73;17.33;;;14.00;99.90;;;;;;6214131;23;20066;-83
2022/05/10 05:25:35;;;;;;;28.50;17.13;;;14.10;99.90;;;;;;6215808;23;20020;-83
2022/05/10 05:28:02;;;;;;;24.15;17.27;;;14.20;99.90;;;;;;6214866;23;20032;-83
2022/05/10 05:30:27;;;;;;;28.00;17.83;;;14.30;99.90;;;;;;6215772;23;20310;-83
2022/05/10 05:32:53;;;;;;;24.75;17.65;;;14.40;99.90;;;;;;6213146;23;20023;-83
2022/05/10 05:35:18;;;;;;;27.00;17.50;;;14.50;99.90;;;;;;6215488;23;20012;-83
2022/05/10 05:37:44;;;;;;;22.05;16.00;;;14.50;99.90;;;;;;6213653;23;20055;-83
2022/05/10 05:40:15;;;;;;;27.10;17.10;;;14.60;99.90;;;;;;6215357;23;20329;-84
2022/05/10 05:42:41;;;;;;;24.88;16.27;;;14.70;99.90;;;;;;6215542;23;20021;-86
2022/05/10 05:45:08;;;;;;;28.45;17.40;;;14.70;99.90;;;;;;6189942;23;20016;-87
2022/05/10 05:47:35;;;;;;;26.10;16.52;;;14.80;99.90;;;;;;6212884;23;20024;-86
2022/05/10 05:50:07;;;;;;;23.08;15.98;;;15.20;99.90;;;;;;6215304;23;20341;-89
2022/05/10 05:52:36;;;;;;;32.28;16.27;;;15.00;99.90;;;;;;6215341;23;20095;-86
2022/05/10 05:55:01;;;;;;;26.73;16.85;;;15.00;99.90;;;;;;6211771;23;20017;-84
2022/05/10 05:57:27;;;;;;;31.92;16.77;;;14.80;99.90;;;;;;6213635;23;20092;-88
2022/05/10 05:59:58;;;;;;;27.60;16.25;;;15.10;99.90;;;;;;6215695;23;20048;-89
2022/05/10 06:02:24;;;;;;;27.00;16.10;;;15.20;99.90;;;;;;6213005;23;20016;-88
2022/05/10 06:04:50;;;;;;;32.88;16.98;;;15.20;99.90;;;;;;6215934;23;20087;-88
2022/05/10 06:07:16;;;;;;;25.05;16.05;;;15.30;99.90;;;;;;6216221;23;20098;-89
2022/05/10 06:09:43;;;;;;;28.70;16.42;;;15.40;99.90;;;;;;6213221;23;20017;-88
2022/05/10 06:12:11;;;;;;;27.48;16.55;;;15.40;99.90;;;;;;6214284;23;20469;-87
2022/05/10 06:14:56;;;;;;;28.63;17.17;;;15.50;99.90;;;;;;6214121;23;20087;-89
2022/05/10 06:17:23;;;;;;;29.25;15.80;;;15.60;99.90;;;;;;6215307;23;20417;-89
2022/05/10 06:19:52;;;;;;;27.90;16.27;;;15.70;99.90;;;;;;6214631;23;20063;-89
2022/05/10 06:22:17;;;;;;;25.15;16.67;;;16.00;99.90;;;;;;6214609;23;20021;-88
2022/05/10 06:24:43;;;;;;;30.27;16.38;;;16.50;99.90;;;;;;6213654;23;20115;-88
2022/05/10 06:27:14;;;;;;;26.00;16.40;;;16.20;99.90;;;;;;6215831;23;20013;-89
2022/05/10 06:29:39;;;;;;;23.92;16.38;;;16.40;99.90;;;;;;6214552;23;20013;-88
2022/05/10 06:32:05;;;;;;;24.15;16.52;;;16.90;99.90;;;;;;6219912;23;20081;-87
2022/05/10 06:34:31;;;;;;;25.08;16.10;;;16.20;99.90;;;;;;6215894;23;20017;-88
2022/05/10 06:36:57;;;;;;;22.67;16.13;;;16.20;99.90;;;;;;6212502;23;20441;-88
2022/05/10 06:39:23;;;;;;;26.25;16.05;;;16.70;99.90;;;;;;6215910;23;20012;-88
2022/05/10 06:41:48;;;;;;;23.55;15.90;;;16.80;99.90;;;;;;6216942;23;20020;-88
2022/05/10 06:44:14;;;;;;;26.17;16.08;;;16.00;99.90;;;;;;6219126;23;20016;-87
2022/05/10 06:46:39;;;;;;;24.42;16.23;;;16.60;99.90;;;;;;6215792;23;20012;-88
2022/05/10 06:49:18;;;;;;;24.80;16.05;;;17.40;99.90;;;;;;6216079;23;20028;-88
2022/05/10 06:51:52;;;;;;;24.38;15.35;;;17.00;99.90;;;;;;6212621;23;20501;-88
2022/05/10 06:54:21;;;;;;;21.75;15.18;;;17.10;99.90;;;;;;6215891;23;20093;-88
2022/05/10 06:57:02;;;;;;;25.13;15.20;;;17.70;99.90;;;;;;6215626;23;20012;-87
2022/05/10 06:59:43;;;;;;;25.92;15.13;;;17.60;99.90;;;;;;6213401;23;20020;-88
2022/05/10 07:02:26;;;;;;;24.48;15.65;;;17.80;99.90;;;;;;6213310;23;20043;-88
2022/05/10 07:04:58;;;;;;;23.35;15.18;;;18.20;99.90;;;;;;6212689;23;20127;-88
2022/05/10 07:07:23;;;;;;;20.77;14.07;;;18.80;99.90;;;;;;6213634;23;20081;-89
2022/05/10 07:09:59;;;;;;;21.00;14.07;;;18.60;99.90;;;;;;6213031;23;20017;-89
2022/05/10 07:12:25;;;;;;;20.20;14.15;;;18.10;99.90;;;;;;6213993;23;20318;-89
2022/05/10 07:14:51;;;;;;;23.60;14.38;;;18.20;99.90;;;;;;6182882;23;20029;-90
2022/05/10 07:17:16;;;;;;;21.65;13.55;;;18.40;99.90;;;;;;6184995;23;20059;-87
2022/05/10 07:19:42;;;;;;;19.52;12.98;;;18.90;99.90;;;;;;6182040;23;20024;-91
2022/05/10 07:22:08;;;;;;;24.85;13.48;;;18.30;99.90;;;;;;6185382;23;20013;-91
2022/05/10 07:24:34;;;;;;;21.65;12.43;;;18.30;99.90;;;;;;6215027;23;20066;-91
2022/05/10 07:27:00;;;;;;;20.85;13.68;;;18.90;99.90;;;;;;6188897;23;20048;-92
2022/05/10 07:29:25;;;;;;;20.52;13.40;;;19.10;99.90;;;;;;6217429;23;20016;-91
2022/05/10 07:31:53;;;;;;;22.73;13.25;;;18.60;99.90;;;;;;6216896;23;20013;-91
2022/05/10 07:34:18;;;;;;;22.05;13.18;;;19.30;99.90;;;;;;6216828;23;20020;-92
2022/05/10 07:36:52;;;;;;;17.63;11.98;;;19.10;99.90;;;;;;6190687;23;20342;-92
2022/05/10 07:39:20;;;;;;;22.98;12.75;;;19.20;99.90;;;;;;6190720;23;20021;-92
2022/05/10 07:41:48;;;;;;;23.73;12.00;;;19.60;99.90;;;;;;6189236;23;20129;-91
2022/05/10 07:44:14;;;;;;;20.90;12.02;;;19.40;99.90;;;;;;6216955;23;20454;-91
2022/05/10 07:46:40;;;;;;;21.83;11.93;;;18.80;99.90;;;;;;6199653;23;20012;-91
2022/05/10 07:49:05;;;;;;;18.70;11.52;;;20.30;99.90;;;;;;6192224;23;20507;-92
2022/05/10 07:51:31;;;;;;;18.67;11.23;;;20.00;99.90;;;;;;6191216;23;20013;-92
2022/05/10 07:53:57;;;;;;;18.35;10.73;;;20.30;99.90;;;;;;6215520;23;20044;-92
2022/05/10 07:56:24;;;;;;;19.50;10.13;;;20.40;99.90;;;;;;6190131;23;20028;-92
2022/05/10 07:58:51;;;;;;;20.20;10.70;;;20.60;99.90;;;;;;6186579;23;20048;-90
2022/05/10 08:01:19;;;;;;;17.70;10.32;;;20.80;99.90;;;;;;6188208;23;20028;-92
2022/05/10 08:03:45;;;;;;;17.10;9.93;;;20.90;99.90;;;;;;6189802;23;20064;-89
2022/05/10 08:06:11;;;;;;;16.92;9.50;;;21.10;99.90;;;;;;6189742;23;20012;-87
2022/05/10 08:08:37;;;;;;;16.45;9.38;;;21.20;99.90;;;;;;6188560;23;20079;-93
2022/05/10 08:11:04;;;;;;;15.82;9.05;;;21.30;99.90;;;;;;6225462;23;20024;-91
2022/05/10 08:13:32;;;;;;;16.33;9.23;;;21.40;99.90;;;;;;6205713;23;20100;-90
2022/05/10 08:15:58;;;;;;;15.48;8.98;;;21.50;99.90;;;;;;6191241;23;20012;-85
2022/05/10 08:18:25;;;;;;;16.27;9.02;;;21.60;99.90;;;;;;6216489;23;20469;-88
2022/05/10 08:20:53;;;;;;;16.58;7.97;;;21.80;99.90;;;;;;6216077;23;20009;-89
2022/05/10 08:23:25;;;;;;;15.88;8.75;;;21.80;99.90;;;;;;6213880;23;20088;-91
2022/05/10 08:25:55;;;;;;;20.17;8.10;;;22.00;99.90;;;;;;6193645;23;20433;-90
2022/05/10 08:28:22;;;;;;;19.00;7.82;;;22.40;99.90;;;;;;6191667;23;20103;-86
2022/05/10 08:30:58;;;;;;;19.80;8.80;;;22.40;99.90;;;;;;6187896;23;20067;-85
2022/05/10 08:33:36;;;;;;;14.07;8.30;;;22.50;99.90;;;;;;6216363;23;20034;-86
2022/05/10 08:36:11;;;;;;;15.35;8.43;;;22.50;99.90;;;;;;6217195;23;20017;-87
2022/05/10 08:38:49;;;;;;;15.55;7.63;;;22.80;99.40;;;;;;6216075;23;20016;-85
2022/05/10 08:41:39;;;;;;;14.05;8.07;;;22.30;99.90;;;;;;6216299;23;20066;-85
2022/05/10 08:44:28;;;;;;;19.10;7.90;;;22.40;99.90;;;;;;6188723;23;20094;-86
2022/05/10 08:47:06;;;;;;;14.43;7.65;;;21.90;99.30;;;;;;6216213;23;20087;-86
2022/05/10 08:50:06;;;;;;;16.45;7.88;;;22.30;99.40;;;;;;6190692;23;20434;-87
2022/05/10 08:52:44;;;;;;;14.48;7.53;;;22.50;99.60;;;;;;6215938;23;20021;-86
2022/05/10 08:55:21;;;;;;;14.52;7.15;;;22.80;99.70;;;;;;6189234;23;20044;-86
2022/05/10 08:58:00;;;;;;;13.60;7.07;;;22.50;99.70;;;;;;6215019;23;20075;-86
2022/05/10 09:00:36;;;;;;;16.75;7.20;;;22.60;99.90;;;;;;6216312;23;20016;-88
2022/05/10 09:03:46;;;;;;;14.05;6.90;;;22.60;99.80;;;;;;6188945;23;20318;-85
2022/05/10 09:06:45;;;;;;;15.82;7.47;;;22.70;99.20;;;;;;6188300;23;20438;-85
2022/05/10 09:09:36;;;;;;;12.75;7.13;;;22.70;98.70;;;;;;6189409;23;20025;-88
2022/05/10 09:12:09;;;;;;;26.15;7.22;;;22.90;98.70;;;;;;6188082;23;20499;-85
2022/05/10 09:14:55;;;;;;;15.95;7.05;;;23.10;99.30;;;;;;6214997;23;20087;-85
2022/05/10 09:17:23;;;;;;;15.25;6.68;;;22.80;98.70;;;;;;6216074;23;20099;-80
2022/05/10 09:20:08;;;;;;;15.02;6.63;;;22.90;98.30;;;;;;6214578;23;20017;-83
2022/05/10 09:23:01;;;;;;;12.98;6.20;;;23.30;98.90;;;;;;6216354;23;20016;-84
2022/05/10 09:25:41;;;;;;;18.37;7.20;;;23.40;97.70;;;;;;6188277;23;20013;-84
2022/05/10 09:28:23;;;;;;;12.35;6.80;;;23.90;98.10;;;;;;6189333;23;20059;-84
2022/05/10 09:37:16;;;;;;;19.15;7.63;;;24.30;97.30;;;;;;6215201;23;20024;-85
2022/05/10 09:40:17;;;;;;;15.50;6.97;;;24.40;96.80;;;;;;6214036;23;20016;-83
2022/05/10 09:42:51;;;;;;;17.70;6.93;;;24.50;96.50;;;;;;6137780;23;20017;-85
2022/05/10 09:45:26;;;;;;;12.80;7.20;;;24.50;97.20;;;;;;6189298;23;20025;-84
2022/05/10 09:48:24;;;;;;;21.40;8.05;;;23.10;96.80;;;;;;6214374;23;20099;-87
2022/05/10 09:50:53;;;;;;;15.60;7.30;;;24.60;96.70;;;;;;6215378;23;20062;-85
2022/05/10 09:53:31;;;;;;;17.90;8.15;;;24.20;96.90;;;;;;6216513;23;20086;-85
2022/05/10 09:56:28;;;;;;;15.60;7.60;;;24.00;96.40;;;;;;6188900;23;20363;-83
2022/05/10 09:59:22;;;;;;;12.57;7.10;;;24.00;97.20;;;;;;6187830;23;20016;-85
2022/05/10 10:02:06;;;;;;;15.35;7.47;;;23.70;97.00;;;;;;6186035;23;20017;-85
2022/05/10 10:04:54;;;;;;;17.85;7.03;;;23.80;97.30;;;;;;6212673;23;20027;-85
2022/05/10 10:07:51;;;;;;;18.23;6.88;;;23.60;97.60;;;;;;6207721;23;20047;-86
2022/05/10 10:10:35;;;;;;;14.57;6.53;;;23.50;97.50;;;;;;6104580;23;20036;-86
2022/05/10 10:16:38;;;;;;;12.45;6.60;;;23.50;97.30;;;;;;6124655;23;20061;-85
2022/05/10 10:22:02;;;;;;;13.02;6.80;;;23.90;97.80;;;;;;6215353;23;20103;-85
2022/05/10 10:25:02;;;;;;;13.27;6.50;;;23.90;97.60;;;;;;6213260;23;20024;-86
2022/05/10 10:27:43;;;;;;;14.48;7.03;;;23.80;97.50;;;;;;6214816;23;20460;-87
2022/05/10 10:30:09;;;;;;;15.52;6.43;;;23.80;97.20;;;;;;6196131;23;20092;-85
2022/05/10 10:35:59;;;;;;;15.60;6.22;;;23.80;97.10;;;;;;6208714;23;20035;-87
2022/05/10 10:39:06;;;;;;;12.98;6.47;;;23.80;97.30;;;;;;6214701;23;20440;-89
2022/05/10 10:42:07;;;;;;;12.05;6.00;;;24.00;97.30;;;;;;6212581;23;20337;-88
2022/05/10 10:44:47;;;;;;;11.60;5.97;;;23.80;96.60;;;;;;6212035;23;20029;-88
2022/05/10 10:47:45;;;;;;;11.63;5.80;;;24.50;96.60;;;;;;6213756;23;20044;-88
2022/05/10 10:50:33;;;;;;;13.18;6.05;;;24.00;96.80;;;;;;6209285;23;20052;-88
2022/05/10 10:53:14;;;;;;;12.52;5.60;;;24.00;96.50;;;;;;6215293;23;20028;-88
2022/05/10 10:56:25;;;;;;;15.50;5.63;;;24.30;96.30;;;;;;6216039;23;20052;-87
2022/05/10 10:59:28;;;;;;;12.13;5.40;;;23.90;96.10;;;;;;6214809;23;20020;-91
2022/05/10 11:02:22;;;;;;;12.43;5.82;;;24.40;96.40;;;;;;6211346;23;20463;-86
2022/05/10 11:05:27;;;;;;;12.00;5.80;;;24.60;96.10;;;;;;6211584;23;20440;-85
2022/05/10 11:08:36;;;;;;;11.82;5.28;;;24.60;94.90;;;;;;6213966;23;20457;-86
2022/05/10 11:17:37;;;;;;;11.50;5.88;;;24.40;95.50;;;;;;6212266;23;20024;-89
2022/05/10 11:20:34;;;;;;;13.00;6.32;;;24.60;95.00;;;;;;6214046;23;20052;-85
2022/05/10 11:23:12;;;;;;;12.35;5.80;;;24.70;94.90;;;;;;6239221;23;20009;-85
2022/05/10 11:26:15;;;;;;;14.60;6.20;;;24.80;94.50;;;;;;6221614;23;20016;-86
2022/05/10 11:29:38;;;;;;;11.57;5.72;;;24.80;94.40;;;;;;6212615;23;20093;-85
2022/05/10 11:32:23;;;;;;;14.18;5.90;;;24.90;94.60;;;;;;6160867;23;20481;-83
2022/05/10 11:39:00;;;;;;;14.63;6.18;;;25.10;94.20;;;;;;6095467;23;20082;-84
2022/05/10 11:42:20;;;;;;;13.57;6.10;;;24.60;93.90;;;;;;6091688;23;20018;-84
2022/05/10 11:45:42;;;;;;;12.68;5.70;;;24.60;94.40;;;;;;6096312;23;20029;-84
2022/05/10 11:48:50;;;;;;;11.93;6.18;;;24.60;94.40;;;;;;6095235;23;20103;-84
2022/05/10 11:55:02;;;;;;;16.05;6.50;;;24.50;94.00;;;;;;6095988;23;20018;-85
2022/05/10 11:57:44;;;;;;;17.25;6.05;;;24.50;94.20;;;;;;6095217;23;20451;-85
2022/05/10 12:00:35;;;;;;;17.07;6.30;;;24.70;94.70;;;;;;6096418;23;20056;-85
2022/05/10 12:03:39;;;;;;;13.35;5.70;;;24.50;94.60;;;;;;6096564;23;20078;-85
2022/05/10 12:06:42;;;;;;;;;;;24.70;94.60;;;;;;6095758;23;20439;-85
2022/05/10 12:09:52;;;;;;;13.45;6.40;;;24.70;94.50;;;;;;6093983;23;20014;-88
2022/05/10 12:12:32;;;;;;;14.18;5.75;;;24.50;94.50;;;;;;6093526;23;20049;-88
2022/05/10 12:21:55;;;;;;;13.10;5.82;;;24.80;94.40;;;;;;6088960;23;20026;-88
2022/05/10 12:24:20;;;;;;;11.50;5.75;;;25.00;94.10;;;;;;6098857;23;20025;-86
2022/05/10 12:27:15;;;;;;;12.48;5.10;;;25.10;94.40;;;;;;6097148;23;20023;-91
2022/05/10 12:29:50;;;;;;;14.00;5.43;;;25.50;93.40;;;;;;6092970;23;20390;-90
2022/05/10 12:32:37;;;;;;;10.93;4.85;;;25.30;92.80;;;;;;6097459;23;20089;-88
2022/05/10 12:35:23;;;;;;;13.20;5.22;;;25.40;93.10;;;;;;6095649;23;20502;-88
2022/05/10 12:38:00;;;;;;;12.75;5.05;;;25.30;92.20;;;;;;6119675;23;20076;-86
2022/05/10 12:40:41;;;;;;;12.93;5.05;;;25.60;91.70;;;;;;6100429;23;20018;-86
2022/05/10 12:43:38;;;;;;;18.33;5.63;;;25.10;92.10;;;;;;6099408;23;20429;-87
2022/05/10 12:46:49;;;;;;;14.48;5.20;;;25.40;92.00;;;;;;6126391;23;20013;-87
2022/05/10 12:49:42;;;;;;;13.38;5.88;;;25.30;92.00;;;;;;6125681;23;20022;-87
2022/05/10 12:52:24;;;;;;;12.75;5.38;;;25.30;91.60;;;;;;6143669;23;20015;-87
2022/05/10 12:55:04;;;;;;;11.60;5.28;;;25.40;92.10;;;;;;6188680;23;20017;-88
2022/05/10 13:00:33;;;;;;;16.02;5.72;;;25.20;91.70;;;;;;6212718;23;20055;-86
2022/05/10 13:03:19;;;;;;;11.82;5.45;;;25.00;91.80;;;;;;6190860;23;20440;-87
2022/05/10 13:05:58;;;;;;;13.45;5.30;;;24.80;92.00;;;;;;6188720;23;20360;-86
2022/05/10 13:08:55;;;;;;;16.27;5.57;;;24.60;92.10;;;;;;6188738;23;20433;-86
2022/05/10 13:11:40;;;;;;;12.63;5.38;;;24.60;91.90;;;;;;6187804;23;20017;-86
2022/05/10 13:14:26;;;;;;;14.05;5.47;;;24.60;92.10;;;;;;6216118;23;20013;-86
2022/05/10 13:16:54;;;;;;;12.57;5.30;;;24.50;92.50;;;;;;6215096;23;20020;-87
2022/05/10 13:19:22;;;;;;;13.98;5.38;;;24.80;92.80;;;;;;6188270;23;20039;-88
2022/05/10 13:22:12;;;;;;;11.60;5.50;;;24.70;92.80;;;;;;6188387;23;20020;-87
2022/05/10 13:24:46;;;;;;;13.18;5.40;;;24.80;93.00;;;;;;6214887;23;20024;-87
2022/05/10 13:27:32;;;;;;;12.13;5.60;;;25.00;93.00;;;;;;6189089;23;20498;-89
2022/05/10 13:30:24;;;;;;;10.68;5.50;;;24.90;93.20;;;;;;6191109;23;20035;-90
2022/05/10 13:33:14;;;;;;;13.45;5.97;;;24.30;93.00;;;;;;6171546;23;20017;-91
2022/05/10 13:35:41;;;;;;;13.82;5.78;;;24.10;93.20;;;;;;6188931;23;20021;-88
2022/05/10 13:38:33;;;;;;;16.40;6.03;;;24.00;93.60;;;;;;6215631;23;20063;-89
2022/05/10 13:41:13;;;;;;;12.10;5.70;;;23.90;94.10;;;;;;6188333;23;20449;-89
2022/05/10 13:44:05;;;;;;;14.27;5.90;;;24.00;94.00;;;;;;6189438;23;20016;-91
2022/05/10 13:46:53;;;;;;;13.48;5.63;;;23.80;93.60;;;;;;6187847;23;20449;-91
2022/05/10 13:49:25;;;;;;;14.20;5.45;;;24.20;93.90;;;;;;6216084;23;20099;-88
2022/05/10 13:52:16;;;;;;;54.30;42.40;;;24.00;93.70;;;;;;6188567;23;20012;-90
2022/05/10 13:55:14;;;;;;;125.50;86.75;;;24.10;93.70;;;;;;6156747;23;20035;-89
2022/05/10 13:58:01;;;;;;;121.15;97.50;;;24.40;93.60;;;;;;6188470;23;20489;-89
2022/05/10 14:00:52;;;;;;;13.95;7.57;;;24.10;93.10;;;;;;6158768;23;20072;-90